createdAt,value
2023-03-24T06:14:01.187Z,3823.8
2023-03-24T06:16:03.789Z,3941.7
2023-03-24T06:17:01.134Z,3924.4
2023-03-24T06:18:01.271Z,3907.1
2023-03-24T06:19:01.059Z,3919.7
2023-03-24T06:20:01.258Z,3932.2
2023-03-24T06:21:01.030Z,3944.7
2023-03-24T06:22:02.060Z,3783.1
2023-03-24T06:23:01.045Z,3621.5
2023-03-24T06:24:06.039Z,3976.2
2023-03-24T06:25:16.906Z,4330.9
2023-03-24T06:26:01.351Z,4685.5
2023-03-24T06:27:01.047Z,5249.8
2023-03-24T06:28:02.066Z,5814.1
2023-03-24T06:29:01.053Z,6803.7
2023-03-24T06:32:01.044Z,9616.9
2023-03-24T06:33:01.078Z,10451.0
2023-03-24T06:34:02.167Z,10873.0
2023-03-24T06:35:07.754Z,11295.0
2023-03-24T06:36:01.384Z,11717.0
2023-03-24T06:37:01.097Z,12171.8
2023-03-24T06:38:01.041Z,12626.6
2023-03-24T06:39:01.083Z,12631.7
2023-03-24T06:40:02.481Z,12636.9
2023-03-24T06:41:01.106Z,12642.0
2023-03-24T06:42:01.052Z,12487.5
2023-03-24T06:43:01.107Z,12333.1
2023-03-24T06:44:01.208Z,13663.4
2023-03-24T06:47:01.105Z,17718.1
2023-03-24T06:48:01.209Z,19112.2
2023-03-24T07:12:00.427Z,59676.7
2023-03-24T07:13:00.490Z,60652.0
2023-03-24T07:14:00.491Z,60250.6
2023-03-24T07:17:00.525Z,59670.3
2023-03-24T07:18:00.512Z,59575.7
2023-03-24T07:19:00.492Z,58155.0
2023-03-24T07:20:01.730Z,56992.6
2023-03-24T07:21:00.495Z,56024.0
2023-03-24T07:22:10.495Z,55682.1
2023-03-24T07:23:00.494Z,55389.0
2023-03-24T07:24:00.490Z,54977.9
2023-03-24T07:25:07.416Z,54411.1
2023-03-24T07:27:00.496Z,53974.7
2023-03-24T07:28:00.430Z,54105.1
2023-03-24T07:29:00.429Z,54564.5
2023-03-24T07:30:01.248Z,55023.8
2023-03-24T07:32:00.745Z,55139.0
2023-03-24T07:33:00.431Z,54794.9
2023-03-24T07:34:01.966Z,55860.5
2023-03-24T07:35:01.300Z,56926.2
2023-03-24T07:37:01.718Z,58922.3
2023-03-24T07:38:00.428Z,59852.7
2023-03-24T07:39:00.426Z,60940.1
2023-03-24T07:40:16.580Z,62027.6
2023-03-24T07:41:15.454Z,63115.1
2023-03-24T08:30:01.773Z,65535.0
2023-03-24T09:15:01.768Z,65535.0
2023-03-24T09:19:00.289Z,64815.5
2023-03-24T09:20:02.248Z,64096.1
2023-03-24T09:21:00.252Z,63376.6
2023-03-24T09:34:03.742Z,63781.1
2023-03-24T09:35:00.689Z,64185.5
2023-03-24T09:36:00.586Z,64590.0
2023-03-24T09:37:00.321Z,64490.0
2023-03-24T09:38:00.318Z,64390.0
2023-03-24T09:45:01.088Z,64390.0
2023-03-24T09:49:00.322Z,64251.9
2023-03-24T09:50:02.470Z,64113.7
2023-03-24T09:51:00.365Z,63975.6
2023-03-24T09:52:00.261Z,64075.6
2023-03-24T09:53:00.297Z,64175.6
2023-03-24T09:54:00.258Z,63301.1
2023-03-24T09:55:05.472Z,62426.7
2023-03-24T09:56:00.265Z,61552.2
2023-03-24T09:57:05.638Z,61183.1
2023-03-24T09:58:00.321Z,60813.9
2023-03-24T10:04:00.898Z,61267.1
2023-03-24T10:05:07.431Z,61720.2
2023-03-24T10:06:00.345Z,62173.3
2023-03-24T10:09:00.306Z,63047.8
2023-03-24T10:10:00.501Z,63922.3
2023-03-24T10:11:00.303Z,64796.7
2023-03-24T10:12:00.273Z,65165.9
2023-03-24T10:13:00.277Z,65535.0
2023-03-24T10:15:01.370Z,65535.0
2023-03-24T10:30:02.364Z,65535.0
2023-03-24T10:45:01.743Z,65535.0
2023-03-24T11:15:25.051Z,65535.0
2023-03-24T12:00:01.424Z,65535.0
2023-03-24T12:15:01.512Z,65535.0
2023-03-24T12:30:01.475Z,65535.0
2023-03-24T12:45:02.333Z,65535.0
2023-03-24T13:00:31.020Z,65535.0
2023-03-24T13:30:03.334Z,65535.0
2023-03-24T13:45:02.816Z,65535.0
2023-03-24T14:30:02.522Z,65535.0
2023-03-24T15:00:03.840Z,65535.0
2023-03-24T15:32:00.200Z,51329.7
2023-03-24T15:33:00.210Z,50486.5
2023-03-24T15:34:00.187Z,49980.6
2023-03-24T15:35:01.817Z,49350.0
2023-03-24T15:37:00.190Z,48381.5
2023-03-24T15:38:00.200Z,47978.6
2023-03-24T15:39:00.202Z,47656.2
2023-03-24T15:42:00.268Z,46493.5
2023-03-24T15:43:00.271Z,46159.9
2023-03-24T15:44:00.254Z,45870.7
2023-03-24T15:45:01.411Z,45048.8
2023-03-24T15:46:09.328Z,44226.9
2023-03-24T15:47:00.258Z,43703.1
2023-03-24T15:48:00.279Z,43179.2
2023-03-24T15:49:00.260Z,42655.3
2023-03-24T15:50:02.257Z,42189.9
2023-03-24T15:51:00.229Z,41724.5
2023-03-24T15:52:00.252Z,41311.3
2023-03-24T15:53:00.192Z,40898.1
2023-03-24T15:54:00.196Z,40484.9
2023-03-24T15:55:06.055Z,40128.5
2023-03-24T15:56:00.203Z,39772.1
2023-03-24T15:57:00.244Z,39401.9
2023-03-24T15:58:00.187Z,39031.7
2023-03-24T15:59:00.189Z,38661.5
2023-03-24T16:02:00.233Z,37636.9
2023-03-24T16:03:00.353Z,37290.5
2023-03-24T16:04:00.281Z,36944.0
2023-03-24T16:05:15.231Z,36620.0
2023-03-24T16:06:00.438Z,36296.0
2023-03-24T16:07:00.227Z,35971.3
2023-03-24T16:08:00.191Z,35646.5
2023-03-24T16:32:01.153Z,27906.0
2023-03-24T16:33:06.156Z,27801.5
2023-03-24T16:34:06.080Z,27738.8
2023-03-24T16:35:01.710Z,27627.7
2023-03-24T16:37:01.112Z,27403.5
2023-03-24T16:38:01.071Z,27290.9
2023-03-24T16:39:01.107Z,27200.8
2023-03-24T16:42:01.084Z,26777.9
2023-03-24T16:43:01.075Z,26640.4
2023-03-24T16:44:01.139Z,26521.3
2023-03-24T16:45:02.209Z,26252.5
2023-03-24T16:47:01.215Z,25714.5
2023-03-24T16:48:01.120Z,25445.4
2023-03-24T16:49:01.097Z,25176.3
2023-03-24T16:50:04.670Z,24868.6
2023-03-24T16:51:01.096Z,24560.9
2023-03-24T16:52:01.091Z,24224.5
2023-03-24T16:53:01.114Z,23888.0
2023-03-24T16:54:01.186Z,23551.5
2023-03-24T16:55:02.140Z,23201.3
2023-03-24T16:56:02.121Z,22851.0
2023-03-24T16:57:06.157Z,22494.3
2023-03-24T16:58:01.130Z,22137.7
2023-03-24T16:59:01.210Z,21781.0
2023-03-24T17:02:01.132Z,20646.7
2023-03-24T17:03:01.195Z,20255.9
2023-03-24T17:04:01.077Z,19865.1
2023-03-24T17:06:01.356Z,19075.1
2023-03-24T17:07:01.078Z,18687.9
2023-03-24T17:08:02.107Z,18300.6
2023-03-24T17:09:01.111Z,17913.3
2023-03-24T17:11:01.090Z,17132.3
2023-03-24T17:12:01.094Z,16731.5
2023-03-24T17:13:01.091Z,16330.8
2023-03-24T17:14:01.078Z,15930.1
2023-03-24T17:16:01.628Z,15096.1
2023-03-24T17:17:01.080Z,14654.7
2023-03-24T17:18:01.654Z,14213.3
